ENNA METAR and TAF weather

Enter ICAO airport designator
Station Type Date Time Source
ENNA METAR 2018/10/16 13:50 UTC NOAA

ENNA 161350Z 17006KT 150V220 CAVOK 09/00 Q1007 RMK WIND 1800FT 28023KT


Station Type Date Time Source
ENNA Decoded METAR 2018/10/16 13:50 UTC NOAA

Banak, Norway (ENNA) 70-04N 024-59E 8M
Oct 16, 2018 - 09:50 AM EDT / 2018.10.16 1350 UTC
Wind: from the S (170 degrees) at 7 MPH (6 KT) (direction variable):0
Visibility: greater than 7 mile(s):0
Temperature: 48 F (9 C)
Dew Point: 32 F (0 C)
Relative Humidity: 53%
Pressure (altimeter): 29.74 in. Hg (1007 hPa)
ob: ENNA 161350Z 17006KT 150V220 CAVOK 09/00 Q1007 RMK WIND 1800FT 28023KT
cycle: 14

Station Type Date Time Source
ENNA TAF 2018/10/16 12:57 UTC NOAA

TAF TAF ENNA 161100Z 1612/1712 19008KT 9999 FEW020 BKN040
TEMPO 1612/1624 26012KT


Example: see airport list